Time;durP1;ratioP1;P1;durP2;ratioP2;P2;SDS_P1;SDS_P2;PMS_P1;PMS_P2;Temp;Humidity;BMP_temperature;BMP_pressure;BME280_temperature;BME280_humidity;BME280_pressure;Samples;Min_cycle;Max_cycle;Signal;HPM_P1;HPM_P2
2021/09/15 00:00:17;;;;;;;5.78;3.80;;;20.90;99.90;;;;;;4881586;29;20059;-80
2021/09/15 00:02:45;;;;;;;5.50;3.80;;;20.90;99.90;;;;;;4881103;29;20053;-81
2021/09/15 00:05:12;;;;;;;7.13;4.35;;;21.00;99.90;;;;;;4881032;29;20488;-80
2021/09/15 00:07:39;;;;;;;5.38;3.75;;;20.90;99.90;;;;;;4881152;29;20410;-80
2021/09/15 00:10:08;;;;;;;5.80;4.00;;;20.90;99.90;;;;;;4880917;29;20055;-80
2021/09/15 00:12:35;;;;;;;6.55;4.22;;;20.90;99.90;;;;;;4880888;29;20053;-80
2021/09/15 00:15:02;;;;;;;7.88;3.97;;;20.90;99.90;;;;;;4880881;29;20048;-80
2021/09/15 00:17:29;;;;;;;6.32;4.30;;;20.90;99.90;;;;;;4880682;29;20514;-80
2021/09/15 00:19:58;;;;;;;6.25;3.97;;;20.90;99.90;;;;;;4880953;29;20049;-80
2021/09/15 00:22:25;;;;;;;6.05;3.97;;;20.90;99.90;;;;;;4880878;29;20056;-80
2021/09/15 00:24:52;;;;;;;6.38;3.92;;;20.90;99.90;;;;;;4880710;29;20080;-80
2021/09/15 00:27:19;;;;;;;5.22;3.47;;;20.80;99.90;;;;;;4880662;29;20049;-80
2021/09/15 00:29:46;;;;;;;6.07;3.88;;;20.90;99.90;;;;;;4880137;29;20055;-80
2021/09/15 00:32:13;;;;;;;6.10;3.58;;;20.90;99.90;;;;;;4880433;29;20049;-80
2021/09/15 00:34:40;;;;;;;5.38;3.47;;;20.90;99.90;;;;;;4880713;29;20384;-80
2021/09/15 00:37:08;;;;;;;5.72;4.10;;;20.90;99.90;;;;;;4880438;29;20510;-80
2021/09/15 00:39:35;;;;;;;6.93;3.83;;;20.90;99.90;;;;;;4880522;29;20087;-80
2021/09/15 00:42:03;;;;;;;5.85;3.70;;;20.90;99.90;;;;;;4880372;29;20558;-80
2021/09/15 00:44:30;;;;;;;6.55;3.95;;;20.90;99.90;;;;;;4880739;29;20095;-80
2021/09/15 00:46:57;;;;;;;5.13;3.55;;;20.90;99.90;;;;;;4880327;29;20053;-80
2021/09/15 00:49:24;;;;;;;6.75;3.88;;;20.90;99.90;;;;;;4880147;29;20053;-80
2021/09/15 00:51:51;;;;;;;6.78;3.50;;;20.80;99.90;;;;;;4880091;29;20057;-80
2021/09/15 00:54:20;;;;;;;6.40;3.60;;;20.80;99.90;;;;;;4880212;29;20053;-80
2021/09/15 00:56:47;;;;;;;5.45;3.80;;;20.80;99.90;;;;;;4880204;29;20045;-80
2021/09/15 00:59:14;;;;;;;5.93;3.45;;;20.70;99.90;;;;;;4879942;29;20055;-80
2021/09/15 01:01:42;;;;;;;5.50;3.60;;;20.70;99.90;;;;;;4879926;29;20407;-80
2021/09/15 01:04:09;;;;;;;5.88;3.90;;;20.70;99.90;;;;;;4879926;29;20433;-80
2021/09/15 01:06:36;;;;;;;6.05;3.70;;;20.80;99.90;;;;;;4879892;29;20049;-80
2021/09/15 01:09:06;;;;;;;7.22;4.55;;;20.80;99.90;;;;;;4879906;29;20407;-80
2021/09/15 01:11:37;;;;;;;8.05;4.60;;;20.70;99.90;;;;;;4879713;29;20143;-80
2021/09/15 01:14:05;;;;;;;7.05;4.88;;;20.60;99.90;;;;;;4880040;29;20136;-80
2021/09/15 01:16:48;;;;;;;7.03;4.32;;;20.60;99.90;;;;;;4879910;29;20053;-80
2021/09/15 01:19:15;;;;;;;8.55;4.45;;;20.60;99.90;;;;;;4880004;29;20140;-80
2021/09/15 01:21:44;;;;;;;5.68;4.30;;;20.40;99.90;;;;;;4879641;29;20484;-80
2021/09/15 01:24:11;;;;;;;6.47;4.03;;;20.40;99.90;;;;;;4879658;29;20045;-80
2021/09/15 01:26:38;;;;;;;6.72;4.22;;;20.40;99.90;;;;;;4879857;29;20143;-80
2021/09/15 01:29:06;;;;;;;7.45;3.95;;;20.40;99.90;;;;;;4879728;29;20095;-80
2021/09/15 01:31:33;;;;;;;7.60;4.07;;;20.40;99.90;;;;;;4879601;29;20053;-80
2021/09/15 01:34:00;;;;;;;6.13;3.70;;;20.40;99.90;;;;;;4879520;29;20049;-80
2021/09/15 01:36:27;;;;;;;5.40;3.80;;;20.40;99.90;;;;;;4879392;29;20049;-80
2021/09/15 01:38:55;;;;;;;7.20;3.90;;;20.40;99.90;;;;;;4879422;29;20057;-80
2021/09/15 01:41:22;;;;;;;6.78;4.30;;;20.50;99.90;;;;;;4878794;29;20059;-79
2021/09/15 01:43:52;;;;;;;6.20;4.03;;;20.50;99.90;;;;;;4879373;29;20484;-80
2021/09/15 01:46:19;;;;;;;6.03;4.13;;;20.50;99.90;;;;;;4879398;29;20052;-80
2021/09/15 01:48:47;;;;;;;6.53;3.80;;;20.50;99.90;;;;;;4879153;29;20057;-80
2021/09/15 01:51:13;;;;;;;6.45;3.80;;;20.50;99.90;;;;;;4879298;29;20059;-80
2021/09/15 01:53:40;;;;;;;6.75;4.00;;;20.60;99.90;;;;;;4879474;29;20419;-80
2021/09/15 01:56:09;;;;;;;5.85;3.92;;;20.60;99.90;;;;;;4879436;29;20061;-80
2021/09/15 01:58:36;;;;;;;4.88;3.60;;;20.60;99.90;;;;;;4879468;29;20049;-80
2021/09/15 02:01:03;;;;;;;6.80;3.72;;;20.60;99.90;;;;;;4879146;29;20051;-80
2021/09/15 02:03:30;;;;;;;5.43;3.72;;;20.50;99.90;;;;;;4879145;29;20055;-80
2021/09/15 02:05:57;;;;;;;5.60;3.80;;;20.60;99.90;;;;;;4879115;29;20053;-80
2021/09/15 02:08:24;;;;;;;6.38;3.97;;;20.60;99.90;;;;;;4879107;29;20049;-79
2021/09/15 02:10:51;;;;;;;7.43;3.83;;;20.60;99.90;;;;;;4879313;29;20055;-80
2021/09/15 02:13:19;;;;;;;6.68;3.80;;;20.60;99.90;;;;;;4879004;29;20049;-80
2021/09/15 02:15:46;;;;;;;6.32;4.22;;;20.60;99.90;;;;;;4879228;29;20053;-80
2021/09/15 02:18:13;;;;;;;5.35;3.60;;;20.50;99.90;;;;;;4879002;29;20053;-80
2021/09/15 02:20:41;;;;;;;5.50;3.70;;;20.50;99.90;;;;;;4879090;29;20553;-80
2021/09/15 02:23:08;;;;;;;5.55;3.80;;;20.50;99.90;;;;;;4879422;29;20073;-80
2021/09/15 02:25:35;;;;;;;5.25;3.75;;;20.50;99.90;;;;;;4878968;29;20053;-80
2021/09/15 02:28:02;;;;;;;6.32;4.32;;;20.40;99.90;;;;;;4879073;29;20045;-80
2021/09/15 02:30:30;;;;;;;8.30;4.20;;;20.40;99.90;;;;;;4879021;29;20416;-80
2021/09/15 02:32:57;;;;;;;6.88;4.13;;;20.30;99.90;;;;;;4878840;29;20055;-80
2021/09/15 02:35:25;;;;;;;6.00;3.90;;;20.30;99.90;;;;;;4878838;29;20049;-80
2021/09/15 02:37:51;;;;;;;6.70;3.85;;;20.20;99.90;;;;;;4878985;29;20053;-80
2021/09/15 02:40:19;;;;;;;6.38;3.72;;;20.20;99.90;;;;;;4878721;29;20377;-80
2021/09/15 02:42:46;;;;;;;7.22;4.47;;;20.20;99.90;;;;;;4878935;29;20246;-80
2021/09/15 02:45:13;;;;;;;5.95;3.58;;;20.20;99.90;;;;;;4878835;29;20075;-80
2021/09/15 02:47:41;;;;;;;5.78;3.63;;;20.20;99.90;;;;;;4878768;29;20071;-80
2021/09/15 02:50:10;;;;;;;6.97;4.10;;;20.20;99.90;;;;;;4878694;29;20053;-80
2021/09/15 02:52:37;;;;;;;6.68;4.00;;;20.20;99.90;;;;;;4879147;29;20409;-80
2021/09/15 02:55:05;;;;;;;7.10;4.00;;;20.20;99.90;;;;;;4882213;29;20064;-80
2021/09/15 02:57:32;;;;;;;6.20;3.85;;;20.20;99.90;;;;;;4882280;29;20052;-80
2021/09/15 02:59:59;;;;;;;5.95;4.22;;;20.20;99.90;;;;;;4882139;29;20084;-80
2021/09/15 03:02:26;;;;;;;6.95;4.00;;;20.30;99.90;;;;;;4882295;29;20050;-80
2021/09/15 03:04:54;;;;;;;6.40;4.15;;;20.20;99.90;;;;;;4882257;29;20144;-80
2021/09/15 03:07:22;;;;;;;6.00;4.07;;;20.30;99.90;;;;;;4882284;29;20053;-80
2021/09/15 03:09:49;;;;;;;6.25;4.10;;;20.30;99.90;;;;;;4882052;29;20053;-80
2021/09/15 03:12:16;;;;;;;6.80;4.40;;;20.20;99.90;;;;;;4881859;29;20049;-80
2021/09/15 03:14:44;;;;;;;7.20;4.32;;;20.20;99.90;;;;;;4881782;29;20487;-80
2021/09/15 03:17:11;;;;;;;5.82;3.90;;;20.10;99.90;;;;;;4882088;29;20429;-79
2021/09/15 03:19:38;;;;;;;6.20;4.22;;;20.00;99.90;;;;;;4882017;29;20057;-80
2021/09/15 03:22:06;;;;;;;6.32;3.83;;;20.00;99.90;;;;;;4881854;29;20049;-80
2021/09/15 03:24:33;;;;;;;6.18;4.10;;;20.10;99.90;;;;;;4881649;29;20487;-80
2021/09/15 03:27:03;;;;;;;5.88;4.07;;;20.10;99.90;;;;;;4881693;29;20052;-80
2021/09/15 03:29:30;;;;;;;6.05;4.05;;;20.00;99.90;;;;;;4881648;29;20052;-80
2021/09/15 03:31:57;;;;;;;6.68;4.20;;;20.00;99.90;;;;;;4881683;29;20049;-80
2021/09/15 03:34:25;;;;;;;6.40;4.22;;;20.10;99.90;;;;;;4881750;29;20055;-80
2021/09/15 03:36:52;;;;;;;7.82;4.82;;;20.10;99.90;;;;;;4881617;29;20053;-80
2021/09/15 03:39:21;;;;;;;9.13;4.82;;;20.00;99.90;;;;;;4881544;29;20491;-80
2021/09/15 03:41:49;;;;;;;8.13;4.80;;;20.00;99.90;;;;;;4881362;29;20055;-80
2021/09/15 03:44:16;;;;;;;7.38;4.22;;;19.90;99.90;;;;;;4881402;29;20084;-80
2021/09/15 03:46:43;;;;;;;8.10;4.53;;;;;;;;;;4881328;29;20055;-80
2021/09/15 03:49:10;;;;;;;7.75;4.47;;;;;;;;;;4881068;29;20072;-80
2021/09/15 03:51:38;;;;;;;6.75;4.20;;;;;;;;;;4881276;29;20144;-80
2021/09/15 03:54:05;;;;;;;7.40;4.50;;;;;;;;;;4881105;29;20148;-80
2021/09/15 03:56:34;;;;;;;7.03;4.30;;;;;;;;;;4881115;29;20049;-80
2021/09/15 03:59:01;;;;;;;7.03;4.35;;;;;;;;;;4881188;29;20055;-80
2021/09/15 04:01:28;;;;;;;7.32;4.45;;;;;;;;;;4881054;29;20055;-80
2021/09/15 04:03:56;;;;;;;7.35;4.90;;;;;;;;;;4880667;29;20060;-80
2021/09/15 04:06:23;;;;;;;9.23;4.43;;;;;;;;;;4880682;29;20148;-80
2021/09/15 04:08:50;;;;;;;7.68;4.13;;;;;;;;;;4880906;29;20147;-80
2021/09/15 04:11:18;;;;;;;7.63;4.10;;;;;;;;;;4881078;29;20133;-79
2021/09/15 04:13:47;;;;;;;6.65;4.10;;;;;;;;;;4880866;29;20053;-79
2021/09/15 04:16:14;;;;;;;7.07;4.35;;;;;;;;;;4880824;29;20049;-80
2021/09/15 04:18:41;;;;;;;6.53;4.10;;;;;;;;;;4880871;29;20053;-80
2021/09/15 04:21:09;;;;;;;7.15;4.07;;;;;;;;;;4880692;29;20055;-81
2021/09/15 04:23:44;;;;;;;5.50;3.65;;;;;;;;;;4880583;29;20152;-80
2021/09/15 04:31:43;;;;;;;6.00;4.35;;;;;;;;;;4880673;29;20388;-80
2021/09/15 04:34:10;;;;;;;6.40;4.35;;;;;;;;;;4880667;29;20053;-80
2021/09/15 04:36:37;;;;;;;5.80;4.10;;;;;;;;;;4880576;29;20077;-81
2021/09/15 04:39:05;;;;;;;7.38;4.43;;;;;;;;;;4880367;29;20059;-80
2021/09/15 04:41:32;;;;;;;7.00;4.38;;;;;;;;;;4880775;29;20045;-80
2021/09/15 04:44:01;;;;;;;7.13;4.00;;;;;;;;;;4880356;29;20136;-81
2021/09/15 04:46:28;;;;;;;6.32;4.28;;;;;;;;;;4880208;29;20056;-80
2021/09/15 04:48:55;;;;;;;5.80;4.25;;;;;;;;;;4879787;29;20067;-80
2021/09/15 04:51:23;;;;;;;6.18;4.22;;;;;;;;;;4880297;29;20052;-80
2021/09/15 04:53:50;;;;;;;6.90;4.80;;;;;;;;;;4879775;29;20526;-81
2021/09/15 04:56:17;;;;;;;8.50;4.53;;;;;;;;;;4880058;29;20139;-80
2021/09/15 04:58:44;;;;;;;6.47;4.38;;;20.10;99.90;;;;;;4879872;29;20135;-80
2021/09/15 05:01:13;;;;;;;6.63;4.78;;;20.10;99.90;;;;;;4880164;29;20048;-80
2021/09/15 05:03:40;;;;;;;6.22;4.32;;;20.00;99.90;;;;;;4879864;29;20148;-80
2021/09/15 05:06:07;;;;;;;6.95;4.53;;;20.00;99.90;;;;;;4880041;29;20049;-80
2021/09/15 05:08:34;;;;;;;6.75;4.40;;;19.90;99.90;;;;;;4880035;29;20059;-80
2021/09/15 05:11:01;;;;;;;6.93;4.18;;;19.90;99.90;;;;;;4879859;29;20418;-81
2021/09/15 05:13:28;;;;;;;6.93;4.53;;;19.90;99.90;;;;;;4879599;29;20053;-80
2021/09/15 05:15:55;;;;;;;8.25;4.95;;;19.90;99.90;;;;;;4879903;29;20051;-80
2021/09/15 05:18:26;;;;;;;6.80;4.55;;;19.90;99.90;;;;;;4879832;29;20053;-80
2021/09/15 05:20:53;;;;;;;6.82;4.45;;;19.90;99.90;;;;;;4879659;29;20556;-80
2021/09/15 05:23:20;;;;;;;7.18;4.35;;;19.90;99.90;;;;;;4879666;29;20492;-81
2021/09/15 05:25:47;;;;;;;7.97;4.88;;;19.90;99.90;;;;;;4879509;29;20052;-81
2021/09/15 05:28:14;;;;;;;6.55;4.63;;;19.90;99.90;;;;;;4879766;29;20055;-81
2021/09/15 05:30:41;;;;;;;7.45;4.70;;;19.90;99.90;;;;;;4879689;29;20052;-80
2021/09/15 05:33:08;;;;;;;7.47;4.38;;;19.90;99.90;;;;;;4879529;29;20053;-80
2021/09/15 05:35:37;;;;;;;6.60;4.57;;;19.90;99.90;;;;;;4879513;29;20049;-80
2021/09/15 05:38:04;;;;;;;6.25;4.50;;;20.00;99.90;;;;;;4879352;29;20051;-80
2021/09/15 05:40:31;;;;;;;7.05;4.40;;;20.00;99.90;;;;;;4879309;29;20506;-80
2021/09/15 05:42:58;;;;;;;6.78;4.88;;;20.00;99.90;;;;;;4879560;29;20053;-79
2021/09/15 05:45:25;;;;;;;6.60;4.57;;;19.90;99.90;;;;;;4879485;29;20053;-79
2021/09/15 05:47:52;;;;;;;6.55;4.43;;;20.00;99.90;;;;;;4879240;29;20502;-80
2021/09/15 05:50:19;;;;;;;6.53;4.55;;;19.90;99.90;;;;;;4879454;29;20059;-80
2021/09/15 05:52:48;;;;;;;7.38;4.57;;;19.90;99.90;;;;;;4879153;29;20053;-79
2021/09/15 05:55:15;;;;;;;6.63;4.20;;;20.00;99.90;;;;;;4879145;29;20515;-79
2021/09/15 05:57:42;;;;;;;6.53;4.47;;;20.00;99.90;;;;;;4879392;29;20056;-79
2021/09/15 06:00:10;;;;;;;6.88;4.65;;;19.90;99.90;;;;;;4879305;29;20049;-80
2021/09/15 06:02:37;;;;;;;7.60;4.93;;;20.00;99.90;;;;;;4879121;29;20049;-80
2021/09/15 06:05:05;;;;;;;7.93;4.55;;;20.00;99.90;;;;;;4879098;29;20045;-80
2021/09/15 06:07:32;;;;;;;6.93;4.53;;;20.00;99.90;;;;;;4878960;29;20049;-80
2021/09/15 06:10:01;;;;;;;8.95;5.07;;;20.00;99.90;;;;;;4878929;29;20051;-80
2021/09/15 06:12:28;;;;;;;8.73;5.38;;;20.00;99.90;;;;;;4879077;29;20049;-79
2021/09/15 06:14:55;;;;;;;8.13;5.45;;;20.00;99.90;;;;;;4879011;29;20057;-80
2021/09/15 06:17:22;;;;;;;7.43;4.97;;;19.90;99.90;;;;;;4879016;29;20057;-79
2021/09/15 06:19:49;;;;;;;7.80;5.25;;;19.90;99.90;;;;;;4878985;29;20053;-79
2021/09/15 06:22:16;;;;;;;8.02;4.80;;;19.80;99.90;;;;;;4878866;29;20405;-79
2021/09/15 06:24:43;;;;;;;7.72;5.15;;;19.80;99.90;;;;;;4878848;29;20479;-79
2021/09/15 06:27:11;;;;;;;9.13;5.50;;;19.70;99.90;;;;;;4879225;29;20056;-80
2021/09/15 06:29:38;;;;;;;7.72;5.50;;;19.70;99.90;;;;;;4882555;29;20567;-80
2021/09/15 06:32:07;;;;;;;7.90;5.63;;;19.70;99.90;;;;;;4882765;29;20056;-80
2021/09/15 06:34:35;;;;;;;8.20;5.40;;;19.70;99.90;;;;;;4882359;29;20477;-79
2021/09/15 06:37:02;;;;;;;7.55;5.53;;;19.70;99.90;;;;;;4882639;29;20448;-79
2021/09/15 06:39:29;;;;;;;6.80;5.05;;;19.70;99.90;;;;;;4882735;29;20055;-80
2021/09/15 06:41:56;;;;;;;7.78;5.63;;;19.60;99.90;;;;;;4882917;29;20057;-79
2021/09/15 06:44:24;;;;;;;9.07;5.47;;;19.70;99.90;;;;;;4882514;29;20052;-80
2021/09/15 06:46:51;;;;;;;11.52;5.53;;;19.70;99.90;;;;;;4882391;29;20410;-80
2021/09/15 06:49:18;;;;;;;6.95;4.82;;;19.60;99.90;;;;;;4882073;29;20059;-80
2021/09/15 06:51:45;;;;;;;6.60;4.90;;;19.70;99.90;;;;;;4882235;29;20053;-79
2021/09/15 06:54:12;;;;;;;7.60;5.13;;;19.70;99.90;;;;;;4882283;29;20060;-80
2021/09/15 06:56:39;;;;;;;8.25;4.93;;;19.70;99.90;;;;;;4882301;29;20071;-80
2021/09/15 06:59:06;;;;;;;7.38;4.97;;;19.70;99.90;;;;;;4882075;29;20561;-80
2021/09/15 07:01:35;;;;;;;9.38;5.38;;;19.70;99.90;;;;;;4882088;29;20045;-80
2021/09/15 07:04:02;;;;;;;7.13;5.40;;;19.80;99.90;;;;;;4882115;29;20049;-80
2021/09/15 07:06:29;;;;;;;7.75;5.35;;;19.80;99.90;;;;;;4882066;29;20144;-80
2021/09/15 07:08:56;;;;;;;8.10;5.15;;;19.80;99.90;;;;;;4882194;29;20053;-80
2021/09/15 07:11:23;;;;;;;6.60;4.80;;;19.80;99.90;;;;;;4882067;29;20132;-81
2021/09/15 07:13:50;;;;;;;7.13;5.15;;;19.80;99.90;;;;;;4881959;29;20049;-80
2021/09/15 07:16:19;;;;;;;8.02;5.20;;;19.80;99.90;;;;;;4881750;29;20049;-80
2021/09/15 07:18:47;;;;;;;8.45;5.53;;;19.80;99.90;;;;;;4882163;29;20049;-80
2021/09/15 07:21:15;;;;;;;7.55;5.45;;;19.90;99.90;;;;;;4881838;29;20049;-80
2021/09/15 07:23:42;;;;;;;7.68;4.72;;;19.90;99.90;;;;;;4881630;29;20403;-80
2021/09/15 07:26:09;;;;;;;8.15;5.18;;;19.90;99.90;;;;;;4881780;29;20052;-80
2021/09/15 07:28:36;;;;;;;9.02;5.13;;;20.00;99.90;;;;;;4881618;29;20055;-80
2021/09/15 07:31:03;;;;;;;7.38;5.40;;;20.00;99.90;;;;;;4881615;29;20051;-80
2021/09/15 07:33:32;;;;;;;8.30;5.43;;;20.00;99.90;;;;;;4881354;29;20407;-80
2021/09/15 07:36:01;;;;;;;8.68;4.30;;;20.00;99.90;;;;;;4881710;29;20049;-80
2021/09/15 07:38:28;;;;;;;6.22;4.72;;;20.10;99.90;;;;;;4881307;29;20049;-80
2021/09/15 07:40:55;;;;;;;6.22;4.50;;;20.10;99.90;;;;;;4880361;29;20140;-80
2021/09/15 07:43:22;;;;;;;6.05;4.40;;;20.10;99.90;;;;;;4881390;29;20063;-80
2021/09/15 07:45:49;;;;;;;6.47;4.25;;;20.10;99.90;;;;;;4881601;29;20045;-80
2021/09/15 07:48:16;;;;;;;7.55;4.57;;;20.10;99.90;;;;;;4881425;29;20463;-80
2021/09/15 07:50:43;;;;;;;6.40;4.18;;;20.10;99.90;;;;;;4880976;29;20517;-80
2021/09/15 07:53:11;;;;;;;9.05;4.50;;;20.10;99.90;;;;;;4881210;29;20480;-80
2021/09/15 07:55:39;;;;;;;6.07;4.03;;;20.10;99.90;;;;;;4881164;29;20049;-80
2021/09/15 07:58:06;;;;;;;7.15;4.22;;;20.10;99.90;;;;;;4881052;29;20056;-80
2021/09/15 08:00:33;;;;;;;7.65;4.43;;;20.20;99.90;;;;;;4881230;29;20051;-80
2021/09/15 08:03:00;;;;;;;7.60;4.55;;;20.20;99.90;;;;;;4881197;29;20158;-80
2021/09/15 08:05:27;;;;;;;6.47;4.13;;;20.20;99.90;;;;;;4881096;29;20061;-80
2021/09/15 08:07:54;;;;;;;6.78;4.30;;;20.20;99.90;;;;;;4881080;29;20064;-80
2021/09/15 08:10:22;;;;;;;6.45;4.63;;;20.30;99.90;;;;;;4880939;29;20133;-80
2021/09/15 08:12:49;;;;;;;6.78;4.13;;;20.30;99.90;;;;;;4881011;29;20045;-80
2021/09/15 08:15:16;;;;;;;6.30;4.10;;;20.30;99.90;;;;;;4880903;29;20053;-79
2021/09/15 08:17:44;;;;;;;6.63;3.90;;;20.30;99.90;;;;;;4880839;29;20053;-80
2021/09/15 08:20:12;;;;;;;5.45;3.78;;;20.30;99.90;;;;;;4880796;29;20049;-80
2021/09/15 08:22:39;;;;;;;9.07;3.85;;;20.30;99.90;;;;;;4880670;29;20411;-80
2021/09/15 08:25:08;;;;;;;6.13;3.88;;;20.30;99.90;;;;;;4880480;29;20052;-80
2021/09/15 08:27:36;;;;;;;6.80;4.15;;;20.30;99.90;;;;;;4880606;29;20506;-80
2021/09/15 08:30:04;;;;;;;8.07;4.38;;;20.30;99.90;;;;;;4880615;29;20468;-80
2021/09/15 08:32:31;;;;;;;8.23;5.03;;;20.30;99.90;;;;;;4880660;29;20049;-79
2021/09/15 08:34:58;;;;;;;6.38;4.45;;;20.20;99.90;;;;;;4880416;29;20147;-80
2021/09/15 08:37:25;;;;;;;8.68;4.75;;;20.20;99.90;;;;;;4880287;29;20053;-79
2021/09/15 08:39:52;;;;;;;6.38;4.40;;;20.20;99.90;;;;;;4880320;29;20483;-80
2021/09/15 08:42:19;;;;;;;9.23;4.93;;;20.10;99.90;;;;;;4880316;29;20478;-80
2021/09/15 08:44:48;;;;;;;10.85;5.43;;;20.10;99.90;;;;;;4880394;29;20056;-80
2021/09/15 08:47:15;;;;;;;8.15;5.47;;;20.10;99.90;;;;;;4880342;29;20080;-80
2021/09/15 08:49:43;;;;;;;8.45;5.65;;;20.00;99.90;;;;;;4879985;29;20156;-80
2021/09/15 08:52:10;;;;;;;9.75;5.82;;;20.00;99.90;;;;;;4879812;29;20055;-80
2021/09/15 08:54:37;;;;;;;11.82;6.80;;;19.90;99.90;;;;;;4880246;29;20059;-80
2021/09/15 08:57:04;;;;;;;10.18;6.60;;;19.90;99.90;;;;;;4880103;29;20515;-80
2021/09/15 08:59:31;;;;;;;11.07;7.30;;;19.90;99.90;;;;;;4880223;29;20124;-80
2021/09/15 09:02:09;;;;;;;8.75;6.05;;;19.90;99.90;;;;;;4879490;29;20055;-80
2021/09/15 09:04:55;;;;;;;8.93;6.13;;;19.80;99.90;;;;;;4879800;29;20075;-79
2021/09/15 09:07:24;;;;;;;9.73;5.50;;;19.80;99.90;;;;;;4877397;29;20056;-82
2021/09/15 09:09:54;;;;;;;9.25;5.65;;;19.80;99.90;;;;;;4878054;29;20048;-79
2021/09/15 09:12:24;;;;;;;8.55;5.43;;;19.90;99.90;;;;;;4878987;29;20479;-79
2021/09/15 09:14:51;;;;;;;8.40;5.50;;;19.80;99.90;;;;;;4880830;29;20053;-79
2021/09/15 09:17:33;;;;;;;9.60;4.80;;;19.80;99.90;;;;;;4884855;29;20064;-79
2021/09/15 09:20:19;;;;;;;8.38;4.90;;;19.80;99.90;;;;;;4885536;29;20484;-80
2021/09/15 09:23:05;;;;;;;7.28;4.90;;;19.80;99.90;;;;;;4890402;29;20085;-81
2021/09/15 09:25:38;;;;;;;8.75;4.35;;;19.80;99.90;;;;;;4885902;29;20567;-82
2021/09/15 09:28:22;;;;;;;7.13;4.80;;;19.80;99.90;;;;;;4887389;29;20040;-80
2021/09/15 09:30:52;;;;;;;7.70;4.70;;;19.80;99.90;;;;;;4884573;29;20548;-81
2021/09/15 09:33:22;;;;;;;6.85;4.57;;;19.80;99.90;;;;;;4887329;29;20091;-80
2021/09/15 09:35:51;;;;;;;8.02;4.40;;;19.80;99.90;;;;;;4888529;29;20052;-80
2021/09/15 09:38:29;;;;;;;10.05;4.53;;;19.80;99.90;;;;;;4887691;29;20377;-80
2021/09/15 09:41:13;;;;;;;7.20;3.72;;;19.70;99.90;;;;;;4885810;29;20064;-80
2021/09/15 09:43:43;;;;;;;6.22;3.78;;;19.70;99.90;;;;;;4886890;29;20055;-80
2021/09/15 09:46:12;;;;;;;7.25;3.88;;;19.60;99.90;;;;;;4884136;29;20072;-81
2021/09/15 09:48:44;;;;;;;7.80;4.10;;;19.60;99.90;;;;;;4887127;29;20095;-82
2021/09/15 09:51:35;;;;;;;6.40;3.90;;;19.60;99.90;;;;;;4887745;29;20045;-81
2021/09/15 09:54:21;;;;;;;7.07;3.50;;;19.60;99.90;;;;;;4883829;29;20141;-81
2021/09/15 09:56:50;;;;;;;6.63;3.55;;;19.60;99.90;;;;;;4885169;29;20559;-81
2021/09/15 09:59:19;;;;;;;5.32;3.28;;;19.60;99.90;;;;;;4886448;29;20052;-81
2021/09/15 10:01:48;;;;;;;5.70;3.22;;;19.70;99.90;;;;;;4884418;29;20056;-81
2021/09/15 10:04:19;;;;;;;6.18;3.53;;;19.70;99.90;;;;;;4885651;29;20146;-80
2021/09/15 10:06:46;;;;;;;5.78;3.25;;;19.80;99.90;;;;;;4884680;29;20052;-80
2021/09/15 10:09:15;;;;;;;6.38;3.58;;;19.80;99.90;;;;;;4886599;29;20080;-81
2021/09/15 10:11:44;;;;;;;22.42;3.78;;;19.90;99.90;;;;;;4888460;29;20044;-81
2021/09/15 10:14:14;;;;;;;5.57;3.25;;;20.00;99.90;;;;;;4887399;29;20117;-82
2021/09/15 10:16:46;;;;;;;6.30;3.40;;;20.00;99.90;;;;;;4886115;29;20045;-81
2021/09/15 10:19:17;;;;;;;5.70;3.17;;;20.10;99.90;;;;;;4886699;29;20083;-82
2021/09/15 10:21:56;;;;;;;5.72;3.40;;;20.20;99.90;;;;;;4884751;29;20484;-82
2021/09/15 10:24:55;;;;;;;6.10;3.10;;;20.30;99.90;;;;;;4888006;29;20048;-81
2021/09/15 10:27:24;;;;;;;5.25;3.47;;;20.30;99.90;;;;;;4887772;29;20053;-82
2021/09/15 10:30:14;;;;;;;4.97;3.10;;;20.40;99.90;;;;;;4886762;29;20052;-83
2021/09/15 10:32:46;;;;;;;6.47;3.30;;;20.40;99.90;;;;;;4884120;29;20053;-81
2021/09/15 10:35:16;;;;;;;5.38;3.15;;;20.50;99.90;;;;;;4886668;29;20151;-82
2021/09/15 10:37:54;;;;;;;6.45;3.17;;;20.60;99.90;;;;;;4884142;29;20109;-80
2021/09/15 10:40:44;;;;;;;5.00;3.03;;;20.60;99.90;;;;;;4885896;29;20052;-81
2021/09/15 10:43:51;;;;;;;6.43;3.40;;;20.60;99.90;;;;;;4886081;29;20049;-81
2021/09/15 10:46:28;;;;;;;4.70;3.15;;;20.60;99.90;;;;;;4884768;29;20096;-81
2021/09/15 10:49:45;;;;;;;5.68;3.00;;;20.60;99.90;;;;;;4885891;29;20057;-82
2021/09/15 10:52:28;;;;;;;5.68;3.17;;;20.60;99.90;;;;;;4887039;29;20072;-82
2021/09/15 10:54:58;;;;;;;4.95;3.08;;;20.60;99.90;;;;;;4885928;29;20483;-81
2021/09/15 10:57:39;;;;;;;6.00;3.40;;;20.70;99.90;;;;;;4884213;29;20128;-82
2021/09/15 11:00:11;;;;;;;4.90;2.88;;;20.70;99.90;;;;;;4884344;29;20045;-82
2021/09/15 11:02:41;;;;;;;4.80;3.20;;;20.70;99.90;;;;;;4886242;29;20056;-82
2021/09/15 11:05:46;;;;;;;5.32;3.17;;;20.80;99.90;;;;;;4884725;29;20131;-82
2021/09/15 11:08:33;;;;;;;4.80;3.28;;;20.80;99.90;;;;;;4887148;29;20062;-81
2021/09/15 11:11:00;;;;;;;5.70;3.35;;;20.90;99.90;;;;;;4887630;29;20057;-83
2021/09/15 11:13:54;;;;;;;6.63;3.15;;;20.90;99.90;;;;;;4883625;29;20051;-81
2021/09/15 11:16:36;;;;;;;5.35;2.92;;;20.90;99.90;;;;;;4881062;29;20063;-82
2021/09/15 11:19:09;;;;;;;6.70;3.10;;;20.90;99.90;;;;;;4879525;29;20053;-81
2021/09/15 11:21:42;;;;;;;6.32;3.28;;;20.90;99.90;;;;;;4881115;29;20048;-81
2021/09/15 11:24:14;;;;;;;7.55;3.30;;;20.90;99.90;;;;;;4881245;29;20139;-79
2021/09/15 11:26:48;;;;;;;6.05;3.15;;;21.00;99.90;;;;;;4881468;29;20060;-80
2021/09/15 11:29:32;;;;;;;4.38;2.65;;;21.00;99.90;;;;;;4881440;29;20502;-80
2021/09/15 11:31:59;;;;;;;6.97;3.25;;;21.00;99.90;;;;;;4881268;29;20522;-81
2021/09/15 11:34:26;;;;;;;5.38;3.20;;;21.00;99.90;;;;;;4881121;29;20071;-80
2021/09/15 11:36:53;;;;;;;5.50;2.92;;;21.00;99.90;;;;;;4881258;29;20045;-81
2021/09/15 11:39:25;;;;;;;4.60;2.83;;;21.10;99.90;;;;;;4881153;29;20480;-80
2021/09/15 11:42:01;;;;;;;4.43;2.72;;;21.10;99.90;;;;;;4881419;29;20460;-81
2021/09/15 11:44:28;;;;;;;4.72;2.90;;;21.20;99.90;;;;;;4881335;29;20472;-81
2021/09/15 11:47:00;;;;;;;4.80;3.13;;;21.20;99.90;;;;;;4881221;29;20481;-80
2021/09/15 11:49:32;;;;;;;4.75;3.05;;;21.20;99.90;;;;;;4879738;29;20057;-80
2021/09/15 11:52:00;;;;;;;6.72;3.10;;;21.20;99.90;;;;;;4880910;29;20056;-81
2021/09/15 11:54:29;;;;;;;5.20;3.10;;;21.20;99.90;;;;;;4880677;29;20060;-82
2021/09/15 11:57:05;;;;;;;6.30;3.47;;;21.30;99.90;;;;;;4881155;29;20080;-81
2021/09/15 11:59:33;;;;;;;4.97;3.13;;;21.30;99.90;;;;;;4880674;29;20085;-81
2021/09/15 12:02:02;;;;;;;6.10;3.00;;;21.30;99.90;;;;;;4881146;29;20045;-81
2021/09/15 12:04:30;;;;;;;5.68;3.30;;;21.40;99.90;;;;;;4881005;29;20136;-81
2021/09/15 12:06:57;;;;;;;5.72;3.40;;;21.40;99.90;;;;;;4881043;29;20057;-81
2021/09/15 12:09:24;;;;;;;6.85;3.03;;;21.40;99.90;;;;;;4880747;29;20056;-81
2021/09/15 12:11:54;;;;;;;5.75;3.00;;;21.50;99.90;;;;;;4880818;29;20064;-82
2021/09/15 12:14:21;;;;;;;6.45;3.15;;;21.60;99.90;;;;;;4879718;29;20053;-82
2021/09/15 12:16:48;;;;;;;5.57;2.72;;;21.60;99.90;;;;;;4880683;29;20053;-81
2021/09/15 12:19:17;;;;;;;5.43;3.40;;;21.70;99.90;;;;;;4880483;29;20056;-81
2021/09/15 12:21:47;;;;;;;7.15;3.40;;;21.80;99.90;;;;;;4880431;29;20059;-81
2021/09/15 12:24:16;;;;;;;5.32;3.13;;;21.80;99.90;;;;;;4881091;29;20059;-81
2021/09/15 12:26:43;;;;;;;6.50;3.15;;;22.00;99.90;;;;;;4879551;29;20052;-81
2021/09/15 12:29:15;;;;;;;5.45;3.20;;;22.10;99.90;;;;;;4880330;29;20591;-81
2021/09/15 12:31:46;;;;;;;6.38;3.03;;;22.20;99.90;;;;;;4880213;29;20144;-82
2021/09/15 12:34:15;;;;;;;6.05;3.45;;;22.40;99.90;;;;;;4880434;29;20139;-82
2021/09/15 12:36:43;;;;;;;5.97;3.20;;;22.60;99.80;;;;;;4880137;29;20053;-83
2021/09/15 12:39:16;;;;;;;5.53;2.90;;;22.60;99.50;;;;;;4880055;29;20480;-81
2021/09/15 12:41:56;;;;;;;5.65;3.00;;;22.60;99.10;;;;;;4880373;29;20075;-80
2021/09/15 12:44:33;;;;;;;5.45;3.10;;;22.70;98.60;;;;;;4880312;29;20582;-81
2021/09/15 12:47:06;;;;;;;6.45;3.08;;;22.80;98.50;;;;;;4880014;29;20053;-81
2021/09/15 12:49:37;;;;;;;5.75;3.08;;;22.90;98.60;;;;;;4879614;29;20172;-80
2021/09/15 12:52:09;;;;;;;5.10;2.92;;;23.00;97.70;;;;;;4880307;29;20136;-80
2021/09/15 12:54:37;;;;;;;5.03;2.63;;;23.00;97.70;;;;;;4880116;29;20060;-82
2021/09/15 12:57:16;;;;;;;5.45;3.22;;;23.20;97.70;;;;;;4879880;29;20151;-82
2021/09/15 12:59:45;;;;;;;5.32;2.75;;;23.30;97.40;;;;;;4879778;29;20079;-81
2021/09/15 13:02:32;;;;;;;6.25;3.10;;;23.40;96.90;;;;;;4879849;29;20056;-80
2021/09/15 13:05:00;;;;;;;4.75;2.50;;;23.50;96.50;;;;;;4879963;29;20126;-81
2021/09/15 13:07:28;;;;;;;4.65;2.67;;;23.70;96.40;;;;;;4879807;29;20102;-81
2021/09/15 13:09:55;;;;;;;5.43;2.75;;;23.80;96.20;;;;;;4879495;29;20049;-82
2021/09/15 13:12:24;;;;;;;5.18;2.55;;;23.80;95.50;;;;;;4879560;29;20136;-82